sensor_id;sensor_type;location;lat;lon;timestamp;pressure;altitude;pressure_sealevel;temperature;humidity
13952;BME280;39535;52.192;9.886;2023-08-01T00:01:09;98691.97;;;17.58;100.00
13952;BME280;39535;52.192;9.886;2023-08-01T00:03:37;98698.09;;;17.58;100.00
13952;BME280;39535;52.192;9.886;2023-08-01T00:06:03;98715.69;;;17.58;100.00
13952;BME280;39535;52.192;9.886;2023-08-01T00:08:30;98710.16;;;17.50;100.00
13952;BME280;39535;52.192;9.886;2023-08-01T00:10:58;98701.06;;;17.54;100.00
13952;BME280;39535;52.192;9.886;2023-08-01T00:13:24;98703.59;;;17.55;100.00
13952;BME280;39535;52.192;9.886;2023-08-01T00:15:52;98701.69;;;17.57;100.00
13952;BME280;39535;52.192;9.886;2023-08-01T00:18:18;98701.69;;;17.57;100.00
13952;BME280;39535;52.192;9.886;2023-08-01T00:20:46;98709.59;;;17.57;100.00
13952;BME280;39535;52.192;9.886;2023-08-01T00:23:12;98701.56;;;17.59;100.00
13952;BME280;39535;52.192;9.886;2023-08-01T00:25:39;98701.78;;;17.56;100.00
13952;BME280;39535;52.192;9.886;2023-08-01T00:28:05;98695.69;;;17.55;100.00
13952;BME280;39535;52.192;9.886;2023-08-01T00:30:33;98696.28;;;17.59;100.00
13952;BME280;39535;52.192;9.886;2023-08-01T00:32:59;98690.75;;;17.62;100.00
13952;BME280;39535;52.192;9.886;2023-08-01T00:35:26;98681.69;;;17.66;100.00
13952;BME280;39535;52.192;9.886;2023-08-01T00:37:56;98685.78;;;17.70;100.00
13952;BME280;39535;52.192;9.886;2023-08-01T00:40:23;98683.97;;;17.71;100.00
13952;BME280;39535;52.192;9.886;2023-08-01T00:42:53;98676.88;;;17.71;100.00
13952;BME280;39535;52.192;9.886;2023-08-01T00:45:22;98672.19;;;17.63;100.00
13952;BME280;39535;52.192;9.886;2023-08-01T00:47:52;98663.06;;;17.67;100.00
13952;BME280;39535;52.192;9.886;2023-08-01T00:50:19;98663.66;;;17.60;100.00
13952;BME280;39535;52.192;9.886;2023-08-01T00:52:47;98669.44;;;17.65;100.00
13952;BME280;39535;52.192;9.886;2023-08-01T00:55:16;98665.94;;;17.53;100.00
13952;BME280;39535;52.192;9.886;2023-08-01T00:57:43;98664.13;;;17.54;100.00
13952;BME280;39535;52.192;9.886;2023-08-01T01:00:11;98652.75;;;17.53;100.00
13952;BME280;39535;52.192;9.886;2023-08-01T01:02:38;98647.25;;;17.56;100.00
13952;BME280;39535;52.192;9.886;2023-08-01T01:05:05;98639.91;;;17.60;100.00
13952;BME280;39535;52.192;9.886;2023-08-01T01:07:31;98633.69;;;17.61;100.00
13952;BME280;39535;52.192;9.886;2023-08-01T01:09:58;98629.25;;;17.61;100.00
13952;BME280;39535;52.192;9.886;2023-08-01T01:12:26;98629.13;;;17.63;100.00
13952;BME280;39535;52.192;9.886;2023-08-01T01:14:52;98617.59;;;17.64;100.00
13952;BME280;39535;52.192;9.886;2023-08-01T01:17:19;98629.50;;;17.70;100.00
13952;BME280;39535;52.192;9.886;2023-08-01T01:19:45;98616.28;;;17.70;100.00
13952;BME280;39535;52.192;9.886;2023-08-01T01:22:15;98612.94;;;17.67;100.00
13952;BME280;39535;52.192;9.886;2023-08-01T01:24:43;98624.56;;;17.65;100.00
13952;BME280;39535;52.192;9.886;2023-08-01T01:27:10;98620.25;;;17.64;100.00
13952;BME280;39535;52.192;9.886;2023-08-01T01:29:38;98631.66;;;17.64;100.00
13952;BME280;39535;52.192;9.886;2023-08-01T01:32:07;98631.28;;;17.69;100.00
13952;BME280;39535;52.192;9.886;2023-08-01T01:34:33;98612.69;;;17.59;100.00
13952;BME280;39535;52.192;9.886;2023-08-01T01:37:00;98608.38;;;17.58;100.00
13952;BME280;39535;52.192;9.886;2023-08-01T01:39:29;98610.66;;;17.63;100.00
13952;BME280;39535;52.192;9.886;2023-08-01T01:41:56;98599.03;;;17.54;100.00
13952;BME280;39535;52.192;9.886;2023-08-01T01:44:22;98573.34;;;17.34;100.00
13952;BME280;39535;52.192;9.886;2023-08-01T01:46:49;98566.41;;;17.33;100.00
13952;BME280;39535;52.192;9.886;2023-08-01T01:49:15;98530.28;;;17.22;100.00
13952;BME280;39535;52.192;9.886;2023-08-01T01:51:41;98518.31;;;17.18;100.00
13952;BME280;39535;52.192;9.886;2023-08-01T01:54:08;98506.34;;;17.25;100.00
13952;BME280;39535;52.192;9.886;2023-08-01T01:56:36;98514.72;;;17.30;100.00
13952;BME280;39535;52.192;9.886;2023-08-01T01:59:02;98518.94;;;17.33;100.00
13952;BME280;39535;52.192;9.886;2023-08-01T02:01:28;98515.09;;;17.37;100.00
13952;BME280;39535;52.192;9.886;2023-08-01T02:03:55;98520.09;;;17.40;100.00
13952;BME280;39535;52.192;9.886;2023-08-01T02:06:23;98519.88;;;17.43;100.00
13952;BME280;39535;52.192;9.886;2023-08-01T02:08:50;98506.44;;;17.46;100.00
13952;BME280;39535;52.192;9.886;2023-08-01T02:11:16;98504.28;;;17.51;100.00
13952;BME280;39535;52.192;9.886;2023-08-01T02:13:44;98512.09;;;17.53;100.00
13952;BME280;39535;52.192;9.886;2023-08-01T02:16:10;98501.16;;;17.57;100.00
13952;BME280;39535;52.192;9.886;2023-08-01T02:18:37;98506.31;;;17.59;100.00
13952;BME280;39535;52.192;9.886;2023-08-01T02:21:03;98497.59;;;17.58;100.00
13952;BME280;39535;52.192;9.886;2023-08-01T02:26:52;98486.88;;;17.60;100.00
13952;BME280;39535;52.192;9.886;2023-08-01T02:29:21;98481.59;;;17.60;100.00
13952;BME280;39535;52.192;9.886;2023-08-01T02:31:48;98482.47;;;17.60;100.00
13952;BME280;39535;52.192;9.886;2023-08-01T02:34:14;98487.84;;;17.59;100.00
13952;BME280;39535;52.192;9.886;2023-08-01T02:36:40;98483.31;;;17.61;100.00
13952;BME280;39535;52.192;9.886;2023-08-01T02:39:07;98475.38;;;17.61;100.00
13952;BME280;39535;52.192;9.886;2023-08-01T02:41:33;98469.38;;;17.59;100.00
13952;BME280;39535;52.192;9.886;2023-08-01T02:44:00;98461.22;;;17.62;100.00
13952;BME280;39535;52.192;9.886;2023-08-01T02:46:28;98458.34;;;17.65;100.00
13952;BME280;39535;52.192;9.886;2023-08-01T02:48:55;98462.78;;;17.64;100.00
13952;BME280;39535;52.192;9.886;2023-08-01T02:51:21;98458.00;;;17.58;100.00
13952;BME280;39535;52.192;9.886;2023-08-01T02:53:47;98450.31;;;17.44;100.00
13952;BME280;39535;52.192;9.886;2023-08-01T02:56:14;98436.09;;;17.35;100.00
13952;BME280;39535;52.192;9.886;2023-08-01T02:58:40;98431.88;;;17.44;100.00
13952;BME280;39535;52.192;9.886;2023-08-01T03:01:08;98426.88;;;17.07;100.00
13952;BME280;39535;52.192;9.886;2023-08-01T03:03:40;98402.91;;;17.10;100.00
13952;BME280;39535;52.192;9.886;2023-08-01T03:06:10;98385.31;;;17.11;100.00
13952;BME280;39535;52.192;9.886;2023-08-01T03:08:37;98388.28;;;17.06;100.00
13952;BME280;39535;52.192;9.886;2023-08-01T03:11:05;98394.75;;;16.91;100.00
13952;BME280;39535;52.192;9.886;2023-08-01T03:13:31;98389.84;;;16.86;100.00
13952;BME280;39535;52.192;9.886;2023-08-01T03:15:58;98387.94;;;16.88;100.00
13952;BME280;39535;52.192;9.886;2023-08-01T03:18:24;98380.56;;;16.58;100.00
13952;BME280;39535;52.192;9.886;2023-08-01T03:20:52;98376.84;;;16.60;100.00
13952;BME280;39535;52.192;9.886;2023-08-01T03:23:18;98371.97;;;16.67;100.00
13952;BME280;39535;52.192;9.886;2023-08-01T03:25:44;98370.03;;;16.80;100.00
13952;BME280;39535;52.192;9.886;2023-08-01T03:28:11;98369.13;;;16.93;100.00
13952;BME280;39535;52.192;9.886;2023-08-01T03:30:37;98378.09;;;17.01;100.00
13952;BME280;39535;52.192;9.886;2023-08-01T03:33:04;98395.59;;;17.02;100.00
13952;BME280;39535;52.192;9.886;2023-08-01T03:35:30;98396.69;;;17.11;100.00
13952;BME280;39535;52.192;9.886;2023-08-01T03:37:58;98404.09;;;17.17;100.00
13952;BME280;39535;52.192;9.886;2023-08-01T03:40:24;98424.97;;;17.09;100.00
13952;BME280;39535;52.192;9.886;2023-08-01T03:42:51;98416.81;;;17.01;100.00
13952;BME280;39535;52.192;9.886;2023-08-01T03:45:17;98401.94;;;17.11;100.00
13952;BME280;39535;52.192;9.886;2023-08-01T03:47:46;98396.69;;;17.11;100.00
13952;BME280;39535;52.192;9.886;2023-08-01T03:50:12;98410.81;;;17.21;100.00
13952;BME280;39535;52.192;9.886;2023-08-01T03:52:39;98408.88;;;17.23;100.00
13952;BME280;39535;52.192;9.886;2023-08-01T03:55:07;98413.78;;;17.28;100.00
13952;BME280;39535;52.192;9.886;2023-08-01T03:57:33;98418.84;;;17.31;100.00
13952;BME280;39535;52.192;9.886;2023-08-01T04:00:00;98416.69;;;17.25;100.00
13952;BME280;39535;52.192;9.886;2023-08-01T04:02:28;98416.78;;;17.23;100.00
13952;BME280;39535;52.192;9.886;2023-08-01T04:04:54;98422.56;;;17.29;100.00
13952;BME280;39535;52.192;9.886;2023-08-01T04:07:20;98420.38;;;17.34;100.00
13952;BME280;39535;52.192;9.886;2023-08-01T04:09:47;98420.16;;;17.37;100.00
13952;BME280;39535;52.192;9.886;2023-08-01T04:12:15;98425.31;;;17.38;100.00
13952;BME280;39535;52.192;9.886;2023-08-01T04:14:41;98437.28;;;17.42;100.00
13952;BME280;39535;52.192;9.886;2023-08-01T04:17:09;98438.00;;;17.44;100.00
13952;BME280;39535;52.192;9.886;2023-08-01T04:19:35;98438.56;;;17.48;100.00
13952;BME280;39535;52.192;9.886;2023-08-01T04:22:02;98433.28;;;17.48;100.00
13952;BME280;39535;52.192;9.886;2023-08-01T04:24:28;98432.84;;;17.43;100.00
13952;BME280;39535;52.192;9.886;2023-08-01T04:26:56;98431.28;;;17.40;100.00
13952;BME280;39535;52.192;9.886;2023-08-01T04:29:24;98426.63;;;17.33;100.00
13952;BME280;39535;52.192;9.886;2023-08-01T04:31:50;98430.81;;;17.35;100.00
13952;BME280;39535;52.192;9.886;2023-08-01T04:34:17;98416.91;;;17.33;100.00
13952;BME280;39535;52.192;9.886;2023-08-01T04:36:43;98423.84;;;17.34;100.00
13952;BME280;39535;52.192;9.886;2023-08-01T04:39:09;98432.00;;;17.31;100.00
13952;BME280;39535;52.192;9.886;2023-08-01T04:41:36;98429.97;;;17.35;100.00
13952;BME280;39535;52.192;9.886;2023-08-01T04:44:02;98436.81;;;17.37;100.00
13952;BME280;39535;52.192;9.886;2023-08-01T04:46:30;98435.84;;;17.38;100.00
13952;BME280;39535;52.192;9.886;2023-08-01T04:48:57;98440.25;;;17.38;100.00
13952;BME280;39535;52.192;9.886;2023-08-01T04:51:24;98433.06;;;17.40;100.00
13952;BME280;39535;52.192;9.886;2023-08-01T04:53:50;98435.00;;;17.38;100.00
13952;BME280;39535;52.192;9.886;2023-08-01T04:56:16;98439.91;;;17.20;100.00
13952;BME280;39535;52.192;9.886;2023-08-01T04:58:43;98432.63;;;17.23;100.00
13952;BME280;39535;52.192;9.886;2023-08-01T05:01:09;98428.44;;;17.21;100.00
13952;BME280;39535;52.192;9.886;2023-08-01T05:03:37;98433.94;;;17.18;100.00
13952;BME280;39535;52.192;9.886;2023-08-01T05:06:03;98429.88;;;16.91;100.00
13952;BME280;39535;52.192;9.886;2023-08-01T05:08:30;98419.75;;;16.74;100.00
13952;BME280;39535;52.192;9.886;2023-08-01T05:10:56;98405.53;;;16.30;100.00
13952;BME280;39535;52.192;9.886;2023-08-01T05:13:23;98387.84;;;16.43;100.00
13952;BME280;39535;52.192;9.886;2023-08-01T05:15:49;98378.50;;;16.39;100.00
13952;BME280;39535;52.192;9.886;2023-08-01T05:18:17;98375.63;;;16.42;100.00
13952;BME280;39535;52.192;9.886;2023-08-01T05:20:44;98381.69;;;16.31;100.00
13952;BME280;39535;52.192;9.886;2023-08-01T05:23:11;98381.59;;;16.33;100.00
13952;BME280;39535;52.192;9.886;2023-08-01T05:25:37;98398.84;;;16.37;100.00
13952;BME280;39535;52.192;9.886;2023-08-01T05:28:04;98419.31;;;16.44;100.00
13952;BME280;39535;52.192;9.886;2023-08-01T05:30:30;98412.56;;;16.29;100.00
13952;BME280;39535;52.192;9.886;2023-08-01T05:32:57;98425.16;;;16.25;100.00
13952;BME280;39535;52.192;9.886;2023-08-01T05:35:23;98418.75;;;16.05;100.00
13952;BME280;39535;52.192;9.886;2023-08-01T05:37:51;98416.53;;;16.23;100.00
13952;BME280;39535;52.192;9.886;2023-08-01T05:40:17;98429.06;;;16.20;100.00
13952;BME280;39535;52.192;9.886;2023-08-01T05:42:44;98430.94;;;16.06;100.00
13952;BME280;39535;52.192;9.886;2023-08-01T05:45:10;98428.69;;;16.13;100.00
13952;BME280;39535;52.192;9.886;2023-08-01T05:47:37;98424.19;;;16.26;100.00
13952;BME280;39535;52.192;9.886;2023-08-01T05:50:05;98427.81;;;16.37;100.00
13952;BME280;39535;52.192;9.886;2023-08-01T05:52:33;98434.19;;;16.45;100.00
13952;BME280;39535;52.192;9.886;2023-08-01T05:55:00;98452.00;;;16.42;100.00
13952;BME280;39535;52.192;9.886;2023-08-01T05:57:27;98461.81;;;16.40;100.00
13952;BME280;39535;52.192;9.886;2023-08-01T05:59:53;98474.16;;;16.39;100.00
13952;BME280;39535;52.192;9.886;2023-08-01T06:02:20;98472.53;;;16.25;100.00
13952;BME280;39535;52.192;9.886;2023-08-01T06:04:46;98460.84;;;16.05;100.00
13952;BME280;39535;52.192;9.886;2023-08-01T06:07:13;98457.88;;;16.10;100.00
13952;BME280;39535;52.192;9.886;2023-08-01T06:09:39;98458.16;;;16.18;100.00
13952;BME280;39535;52.192;9.886;2023-08-01T06:12:07;98463.63;;;16.15;100.00
13952;BME280;39535;52.192;9.886;2023-08-01T06:14:34;98465.66;;;16.12;100.00
13952;BME280;39535;52.192;9.886;2023-08-01T06:17:00;98467.50;;;16.22;100.00
13952;BME280;39535;52.192;9.886;2023-08-01T06:19:27;98468.22;;;16.00;100.00
13952;BME280;39535;52.192;9.886;2023-08-01T06:21:53;98460.16;;;16.15;100.00
13952;BME280;39535;52.192;9.886;2023-08-01T06:24:19;98454.38;;;16.34;100.00
13952;BME280;39535;52.192;9.886;2023-08-01T06:26:46;98458.66;;;16.23;100.00
13952;BME280;39535;52.192;9.886;2023-08-01T06:29:13;98453.59;;;16.20;100.00
13952;BME280;39535;52.192;9.886;2023-08-01T06:31:40;98449.00;;;16.35;100.00
13952;BME280;39535;52.192;9.886;2023-08-01T06:34:06;98451.44;;;16.50;100.00
13952;BME280;39535;52.192;9.886;2023-08-01T06:36:33;98458.41;;;16.62;100.00
13952;BME280;39535;52.192;9.886;2023-08-01T06:39:00;98452.72;;;16.44;100.00
13952;BME280;39535;52.192;9.886;2023-08-01T06:41:26;98458.34;;;16.39;100.00
13952;BME280;39535;52.192;9.886;2023-08-01T06:43:53;98453.50;;;16.33;100.00
13952;BME280;39535;52.192;9.886;2023-08-01T06:46:21;98451.31;;;16.51;100.00
13952;BME280;39535;52.192;9.886;2023-08-01T06:48:48;98459.81;;;16.55;100.00
13952;BME280;39535;52.192;9.886;2023-08-01T06:51:14;98459.59;;;16.58;100.00
13952;BME280;39535;52.192;9.886;2023-08-01T06:53:40;98465.00;;;16.67;100.00
13952;BME280;39535;52.192;9.886;2023-08-01T06:56:07;98470.88;;;16.71;100.00
13952;BME280;39535;52.192;9.886;2023-08-01T06:58:33;98472.91;;;16.67;100.00
13952;BME280;39535;52.192;9.886;2023-08-01T07:01:00;98452.47;;;16.47;100.00
13952;BME280;39535;52.192;9.886;2023-08-01T07:03:27;98461.03;;;16.26;100.00
13952;BME280;39535;52.192;9.886;2023-08-01T07:05:54;98464.59;;;16.14;100.00
13952;BME280;39535;52.192;9.886;2023-08-01T07:08:20;98457.78;;;16.12;100.00
13952;BME280;39535;52.192;9.886;2023-08-01T07:10:47;98471.63;;;15.89;100.00
13952;BME280;39535;52.192;9.886;2023-08-01T07:13:13;98464.50;;;15.92;100.00
13952;BME280;39535;52.192;9.886;2023-08-01T07:15:41;98470.31;;;15.71;100.00
13952;BME280;39535;52.192;9.886;2023-08-01T07:18:07;98467.22;;;15.90;100.00
13952;BME280;39535;52.192;9.886;2023-08-01T07:20:35;98466.50;;;15.88;100.00
13952;BME280;39535;52.192;9.886;2023-08-01T07:23:01;98472.66;;;16.00;100.00
13952;BME280;39535;52.192;9.886;2023-08-01T07:25:28;98487.09;;;16.18;100.00
13952;BME280;39535;52.192;9.886;2023-08-01T07:27:54;98482.22;;;16.25;100.00
13952;BME280;39535;52.192;9.886;2023-08-01T07:30:21;98489.91;;;16.28;100.00
13952;BME280;39535;52.192;9.886;2023-08-01T07:32:47;98505.81;;;16.26;100.00
13952;BME280;39535;52.192;9.886;2023-08-01T07:35:13;98509.06;;;16.06;100.00
13952;BME280;39535;52.192;9.886;2023-08-01T07:37:41;98503.50;;;15.98;100.00
13952;BME280;39535;52.192;9.886;2023-08-01T07:40:09;98509.25;;;16.03;100.00
13952;BME280;39535;52.192;9.886;2023-08-01T07:42:36;98513.34;;;16.07;100.00
13952;BME280;39535;52.192;9.886;2023-08-01T07:45:03;98505.06;;;16.00;100.00
13952;BME280;39535;52.192;9.886;2023-08-01T07:47:28;98502.53;;;15.99;100.00
13952;BME280;39535;52.192;9.886;2023-08-01T07:49:55;98516.03;;;15.94;100.00
13952;BME280;39535;52.192;9.886;2023-08-01T07:52:21;98511.44;;;16.09;100.00
13952;BME280;39535;52.192;9.886;2023-08-01T07:54:49;98520.22;;;16.10;100.00
13952;BME280;39535;52.192;9.886;2023-08-01T07:57:17;98526.69;;;16.17;100.00
13952;BME280;39535;52.192;9.886;2023-08-01T07:59:43;98541.69;;;16.03;100.00
13952;BME280;39535;52.192;9.886;2023-08-01T08:02:10;98538.31;;;16.01;100.00
13952;BME280;39535;52.192;9.886;2023-08-01T08:04:36;98538.50;;;16.11;100.00
13952;BME280;39535;52.192;9.886;2023-08-01T08:07:03;98554.53;;;16.08;100.00
13952;BME280;39535;52.192;9.886;2023-08-01T08:09:30;98566.81;;;16.20;100.00
13952;BME280;39535;52.192;9.886;2023-08-01T08:11:58;98559.78;;;16.08;100.00
13952;BME280;39535;52.192;9.886;2023-08-01T08:14:24;98566.91;;;16.19;100.00
13952;BME280;39535;52.192;9.886;2023-08-01T08:16:51;98566.59;;;16.23;100.00
13952;BME280;39535;52.192;9.886;2023-08-01T08:19:17;98555.16;;;16.36;100.00
13952;BME280;39535;52.192;9.886;2023-08-01T08:21:44;98553.44;;;16.59;100.00
13952;BME280;39535;52.192;9.886;2023-08-01T08:24:10;98553.22;;;16.62;100.00
13952;BME280;39535;52.192;9.886;2023-08-01T08:26:36;98555.91;;;16.73;100.00
13952;BME280;39535;52.192;9.886;2023-08-01T08:29:06;98577.19;;;16.83;100.00
13952;BME280;39535;52.192;9.886;2023-08-01T08:31:32;98587.47;;;16.86;100.00
13952;BME280;39535;52.192;9.886;2023-08-01T08:33:59;98587.28;;;16.89;100.00
13952;BME280;39535;52.192;9.886;2023-08-01T08:36:25;98595.19;;;16.89;100.00
13952;BME280;39535;52.192;9.886;2023-08-01T08:38:51;98596.78;;;17.03;100.00
13952;BME280;39535;52.192;9.886;2023-08-01T08:41:20;98602.78;;;17.16;100.00
13952;BME280;39535;52.192;9.886;2023-08-01T08:43:47;98603.44;;;17.31;100.00
13952;BME280;39535;52.192;9.886;2023-08-01T08:46:16;98626.94;;;17.45;100.00
13952;BME280;39535;52.192;9.886;2023-08-01T08:48:43;98645.31;;;17.47;100.00
13952;BME280;39535;52.192;9.886;2023-08-01T08:51:12;98639.22;;;17.69;100.00
13952;BME280;39535;52.192;9.886;2023-08-01T08:53:40;98646.53;;;17.77;100.00
13952;BME280;39535;52.192;9.886;2023-08-01T08:56:08;98681.34;;;17.82;100.00
13952;BME280;39535;52.192;9.886;2023-08-01T08:58:36;98693.78;;;17.80;100.00
13952;BME280;39535;52.192;9.886;2023-08-01T09:01:18;98706.88;;;17.81;100.00
13952;BME280;39535;52.192;9.886;2023-08-01T09:03:45;98732.97;;;17.62;100.00
13952;BME280;39535;52.192;9.886;2023-08-01T09:06:14;98748.69;;;17.63;100.00
13952;BME280;39535;52.192;9.886;2023-08-01T09:08:45;98729.06;;;17.79;100.00
13952;BME280;39535;52.192;9.886;2023-08-01T09:11:14;98692.66;;;17.95;100.00
13952;BME280;39535;52.192;9.886;2023-08-01T09:13:40;98735.19;;;17.68;100.00
13952;BME280;39535;52.192;9.886;2023-08-01T09:16:09;98724.22;;;17.61;100.00
13952;BME280;39535;52.192;9.886;2023-08-01T09:18:48;98689.06;;;17.50;100.00
13952;BME280;39535;52.192;9.886;2023-08-01T09:21:14;98677.13;;;17.68;100.00
13952;BME280;39535;52.192;9.886;2023-08-01T09:23:41;98682.41;;;17.79;100.00
13952;BME280;39535;52.192;9.886;2023-08-01T09:26:12;98732.81;;;17.76;100.00
13952;BME280;39535;52.192;9.886;2023-08-01T09:28:39;98765.31;;;17.77;99.20
13952;BME280;39535;52.192;9.886;2023-08-01T09:31:05;98784.78;;;17.87;99.28
13952;BME280;39535;52.192;9.886;2023-08-01T09:33:38;98747.38;;;17.93;100.00
13952;BME280;39535;52.192;9.886;2023-08-01T09:36:06;98765.75;;;18.06;100.00
13952;BME280;39535;52.192;9.886;2023-08-01T09:38:34;98729.28;;;18.22;100.00
13952;BME280;39535;52.192;9.886;2023-08-01T09:41:00;98756.44;;;18.36;99.84
13952;BME280;39535;52.192;9.886;2023-08-01T09:43:33;98774.78;;;18.37;98.94
13952;BME280;39535;52.192;9.886;2023-08-01T09:46:00;98807.44;;;18.36;95.24
13952;BME280;39535;52.192;9.886;2023-08-01T09:48:27;98808.53;;;18.45;97.38
13952;BME280;39535;52.192;9.886;2023-08-01T09:51:08;98845.50;;;18.45;95.27
13952;BME280;39535;52.192;9.886;2023-08-01T09:53:35;98884.22;;;18.57;92.61
13952;BME280;39535;52.192;9.886;2023-08-01T09:56:03;98894.06;;;18.66;91.90
13952;BME280;39535;52.192;9.886;2023-08-01T09:58:32;98913.78;;;18.74;90.13
13952;BME280;39535;52.192;9.886;2023-08-01T10:00:59;98930.13;;;18.79;90.75
13952;BME280;39535;52.192;9.886;2023-08-01T10:03:26;98957.19;;;18.82;89.56
13952;BME280;39535;52.192;9.886;2023-08-01T10:05:55;98979.59;;;18.90;87.81
13952;BME280;39535;52.192;9.886;2023-08-01T10:08:23;99023.69;;;19.00;85.76
13952;BME280;39535;52.192;9.886;2023-08-01T10:10:49;99084.84;;;18.84;82.31
13952;BME280;39535;52.192;9.886;2023-08-01T10:13:17;99085.84;;;18.71;84.66
13952;BME280;39535;52.192;9.886;2023-08-01T10:15:44;99045.34;;;18.70;86.35
13952;BME280;39535;52.192;9.886;2023-08-01T10:18:11;98997.38;;;18.88;88.26
13952;BME280;39535;52.192;9.886;2023-08-01T10:20:39;99020.91;;;18.79;86.62
13952;BME280;39535;52.192;9.886;2023-08-01T10:23:06;98996.03;;;18.82;87.97
13952;BME280;39535;52.192;9.886;2023-08-01T10:25:35;98967.94;;;19.03;88.24
13952;BME280;39535;52.192;9.886;2023-08-01T10:28:04;98974.53;;;19.20;88.25
13952;BME280;39535;52.192;9.886;2023-08-01T10:30:32;99022.63;;;19.14;85.48
13952;BME280;39535;52.192;9.886;2023-08-01T10:32:59;99080.81;;;19.03;82.77
13952;BME280;39535;52.192;9.886;2023-08-01T10:35:37;99053.06;;;19.20;84.72
13952;BME280;39535;52.192;9.886;2023-08-01T10:38:08;99095.13;;;19.12;82.28
13952;BME280;39535;52.192;9.886;2023-08-01T10:40:37;99107.53;;;19.11;81.01
13952;BME280;39535;52.192;9.886;2023-08-01T10:43:04;99139.75;;;19.16;80.85
13952;BME280;39535;52.192;9.886;2023-08-01T10:45:34;99100.31;;;19.24;82.49
13952;BME280;39535;52.192;9.886;2023-08-01T10:48:09;99090.50;;;19.38;82.20
13952;BME280;39535;52.192;9.886;2023-08-01T10:50:37;99120.00;;;19.44;80.86
13952;BME280;39535;52.192;9.886;2023-08-01T10:53:04;99133.22;;;19.56;80.56
13952;BME280;39535;52.192;9.886;2023-08-01T10:55:50;99156.31;;;19.42;78.98
13952;BME280;39535;52.192;9.886;2023-08-01T10:58:17;99186.66;;;19.61;77.71
13952;BME280;39535;52.192;9.886;2023-08-01T11:00:43;99190.69;;;19.89;78.32
13952;BME280;39535;52.192;9.886;2023-08-01T11:03:10;99265.94;;;19.87;73.62
13952;BME280;39535;52.192;9.886;2023-08-01T11:05:37;99293.63;;;19.94;74.32
13952;BME280;39535;52.192;9.886;2023-08-01T11:08:03;99272.00;;;20.00;75.07
13952;BME280;39535;52.192;9.886;2023-08-01T11:10:31;99242.97;;;20.21;74.79
13952;BME280;39535;52.192;9.886;2023-08-01T11:13:00;99326.19;;;20.07;71.21
13952;BME280;39535;52.192;9.886;2023-08-01T11:15:26;99345.22;;;20.12;71.60
13952;BME280;39535;52.192;9.886;2023-08-01T11:17:54;99353.81;;;19.80;72.58
13952;BME280;39535;52.192;9.886;2023-08-01T11:20:22;99327.84;;;19.97;71.96
13952;BME280;39535;52.192;9.886;2023-08-01T11:22:50;99334.97;;;19.96;73.14
13952;BME280;39535;52.192;9.886;2023-08-01T11:25:17;99319.06;;;19.96;73.74
13952;BME280;39535;52.192;9.886;2023-08-01T11:27:44;99295.34;;;19.95;74.47
13952;BME280;39535;52.192;9.886;2023-08-01T11:30:12;99248.03;;;20.35;74.99
13952;BME280;39535;52.192;9.886;2023-08-01T11:32:38;99301.66;;;20.50;72.42
13952;BME280;39535;52.192;9.886;2023-08-01T11:35:05;99334.81;;;20.56;72.21
13952;BME280;39535;52.192;9.886;2023-08-01T11:37:32;99363.25;;;20.65;70.46
13952;BME280;39535;52.192;9.886;2023-08-01T11:39:59;99405.31;;;20.58;69.85
13952;BME280;39535;52.192;9.886;2023-08-01T11:42:30;99404.50;;;20.22;69.86
13952;BME280;39535;52.192;9.886;2023-08-01T11:45:07;99399.56;;;19.82;70.20
13952;BME280;39535;52.192;9.886;2023-08-01T11:47:35;99369.50;;;19.71;72.47
13952;BME280;39535;52.192;9.886;2023-08-01T11:50:02;99322.72;;;19.71;73.37
13952;BME280;39535;52.192;9.886;2023-08-01T11:52:29;99328.53;;;19.63;72.81
13952;BME280;39535;52.192;9.886;2023-08-01T11:54:56;99299.00;;;19.45;73.60
13952;BME280;39535;52.192;9.886;2023-08-01T11:57:22;99320.91;;;19.23;73.12
13952;BME280;39535;52.192;9.886;2023-08-01T11:59:50;99327.53;;;19.29;72.81
13952;BME280;39535;52.192;9.886;2023-08-01T12:02:21;99309.03;;;19.29;72.78
13952;BME280;39535;52.192;9.886;2023-08-01T12:04:49;99310.75;;;19.17;73.15
13952;BME280;39535;52.192;9.886;2023-08-01T12:07:16;99309.47;;;18.99;73.33
13952;BME280;39535;52.192;9.886;2023-08-01T12:09:43;99278.09;;;18.81;75.14
13952;BME280;39535;52.192;9.886;2023-08-01T12:12:09;99195.91;;;18.48;78.76
13952;BME280;39535;52.192;9.886;2023-08-01T12:14:39;99148.78;;;18.41;79.63
13952;BME280;39535;52.192;9.886;2023-08-01T12:17:05;99106.88;;;18.24;81.22
13952;BME280;39535;52.192;9.886;2023-08-01T12:19:32;99069.91;;;18.11;83.01
13952;BME280;39535;52.192;9.886;2023-08-01T12:22:00;99004.88;;;18.10;84.40
13952;BME280;39535;52.192;9.886;2023-08-01T12:24:26;98972.47;;;18.19;85.10
13952;BME280;39535;52.192;9.886;2023-08-01T12:26:53;98951.06;;;18.00;86.61
13952;BME280;39535;52.192;9.886;2023-08-01T12:29:19;98917.47;;;18.02;87.78
13952;BME280;39535;52.192;9.886;2023-08-01T12:31:46;98914.75;;;18.61;85.74
13952;BME280;39535;52.192;9.886;2023-08-01T12:34:12;98979.72;;;19.33;82.34
13952;BME280;39535;52.192;9.886;2023-08-01T12:36:38;99066.22;;;19.67;78.85
13952;BME280;39535;52.192;9.886;2023-08-01T12:39:06;99133.63;;;20.08;77.11
13952;BME280;39535;52.192;9.886;2023-08-01T12:41:35;99205.78;;;20.00;76.24
13952;BME280;39535;52.192;9.886;2023-08-01T12:44:02;99251.38;;;20.03;75.92
13952;BME280;39535;52.192;9.886;2023-08-01T12:46:29;99261.63;;;19.61;75.81
13952;BME280;39535;52.192;9.886;2023-08-01T12:48:55;99285.69;;;19.58;75.96
13952;BME280;39535;52.192;9.886;2023-08-01T12:51:21;99250.03;;;19.51;77.64
13952;BME280;39535;52.192;9.886;2023-08-01T12:53:48;99219.72;;;19.20;78.76
13952;BME280;39535;52.192;9.886;2023-08-01T12:56:16;99198.97;;;19.02;79.30